Time;durP1;ratioP1;P1;durP2;ratioP2;P2;SDS_P1;SDS_P2;PMS_P1;PMS_P2;Temp;Humidity;BMP_temperature;BMP_pressure;BME280_temperature;BME280_humidity;BME280_pressure;Samples;Min_cycle;Max_cycle;Signal;HPM_P1;HPM_P2
2023/06/16 00:01:43;;;;;;;4.65;4.13;;;;;;;16.66;48.00;95690.97;4998402;28;20219;-78
2023/06/16 00:04:08;;;;;;;5.70;4.07;;;;;;;16.69;48.13;95698.50;4971771;28;20222;-78
2023/06/16 00:06:34;;;;;;;3.80;3.50;;;;;;;16.66;48.47;95690.19;4973263;28;20184;-78
2023/06/16 00:09:00;;;;;;;3.95;3.60;;;;;;;16.62;48.05;95687.13;5000491;28;20241;-78
2023/06/16 00:11:27;;;;;;;5.05;3.78;;;;;;;16.65;47.96;95691.19;4986974;28;20247;-78
2023/06/16 00:13:53;;;;;;;7.60;4.00;;;;;;;16.72;48.06;95691.31;4973246;28;20215;-78
2023/06/16 00:16:19;;;;;;;4.57;4.18;;;;;;;16.62;48.30;95697.59;4982158;28;20190;-79
2023/06/16 00:18:49;;;;;;;4.55;3.55;;;;;;;16.61;48.30;95685.50;4996201;28;20652;-78
2023/06/16 00:21:19;;;;;;;6.00;4.10;;;;;;;16.54;48.49;95687.19;4986691;28;20236;-79
2023/06/16 00:23:45;;;;;;;4.07;3.60;;;;;;;16.60;48.15;95690.88;4980764;28;20227;-77
2023/06/16 00:26:10;;;;;;;4.38;4.05;;;;;;;16.64;48.01;95685.13;4978645;28;20188;-80
2023/06/16 00:28:38;;;;;;;6.63;4.28;;;;;;;16.61;48.12;95682.88;4981860;28;20262;-77
2023/06/16 00:31:04;;;;;;;5.05;3.83;;;;;;;16.52;48.19;95690.97;4994671;28;20251;-77
2023/06/16 00:33:30;;;;;;;4.75;4.20;;;;;;;16.62;48.10;95684.50;4981044;28;20840;-77
2023/06/16 00:35:55;;;;;;;3.70;3.40;;;;;;;16.63;47.92;95688.75;5000883;28;20187;-78
2023/06/16 00:38:21;;;;;;;5.22;3.88;;;;;;;16.58;47.84;95674.53;4987912;28;20179;-78
2023/06/16 00:40:46;;;;;;;5.72;3.72;;;;;;;16.49;48.28;95676.44;4998209;28;20275;-78
2023/06/16 00:43:11;;;;;;;5.30;4.03;;;;;;;16.40;48.47;95677.53;4979474;28;20190;-79
2023/06/16 00:45:37;;;;;;;5.57;4.03;;;;;;;16.33;48.80;95674.78;4978116;28;20230;-78
2023/06/16 00:48:02;;;;;;;5.13;3.55;;;;;;;16.21;49.11;95680.66;4981914;28;20207;-78
2023/06/16 00:50:28;;;;;;;4.05;3.50;;;;;;;16.30;48.30;95676.97;4960293;28;20200;-78
2023/06/16 00:52:53;;;;;;;4.30;3.90;;;;;;;16.27;48.82;95680.78;4974796;28;20184;-78
2023/06/16 00:55:21;;;;;;;5.20;3.88;;;;;;;16.23;48.90;95676.88;4986803;28;20211;-78
2023/06/16 00:57:47;;;;;;;4.18;3.78;;;;;;;16.31;48.71;95674.16;4985996;28;20274;-78
2023/06/16 01:00:13;;;;;;;4.28;3.88;;;;;;;16.21;48.53;95670.19;4999425;28;20539;-78
2023/06/16 01:02:39;;;;;;;5.38;4.35;;;;;;;16.27;48.82;95669.47;5018427;28;20250;-78
2023/06/16 01:05:07;;;;;;;5.25;3.92;;;;;;;16.23;48.90;95671.63;5005991;28;20251;-77
2023/06/16 01:07:39;;;;;;;6.90;4.05;;;;;;;16.21;48.97;95680.66;4997987;28;20199;-78
2023/06/16 01:10:10;;;;;;;5.03;4.20;;;;;;;16.15;48.72;95675.13;5029533;28;20182;-78
2023/06/16 01:12:52;;;;;;;5.90;4.28;;;;;;;16.19;48.75;95680.03;4992969;28;20175;-78
2023/06/16 01:15:21;;;;;;;3.97;3.67;;;;;;;16.13;49.08;95673.69;5006035;28;20234;-78
2023/06/16 01:17:50;;;;;;;4.18;3.78;;;;;;;16.09;49.04;95682.91;5008293;28;20179;-78
2023/06/16 01:20:37;;;;;;;4.93;3.97;;;;;;;16.12;48.65;95678.13;5014034;28;20183;-79
2023/06/16 01:23:20;;;;;;;4.75;4.03;;;;;;;16.18;48.51;95678.41;4998604;28;20196;-78
2023/06/16 01:25:47;;;;;;;5.57;3.90;;;;;;;16.11;48.93;95683.56;4981351;28;20191;-79
2023/06/16 01:28:13;;;;;;;5.63;3.92;;;;;;;16.11;49.01;95673.88;4980244;28;20200;-78
2023/06/16 01:30:44;;;;;;;4.93;4.07;;;;;;;16.01;49.10;95670.72;4977502;28;20203;-78
2023/06/16 01:33:10;;;;;;;4.72;4.03;;;;;;;16.02;49.05;95669.72;4969341;28;20274;-78
2023/06/16 01:35:37;;;;;;;4.00;3.60;;;;;;;16.03;48.82;95673.16;4982718;28;20414;-78
2023/06/16 01:38:02;;;;;;;5.47;4.10;;;;;;;16.09;48.65;95672.44;4983274;28;20267;-78
2023/06/16 01:40:28;;;;;;;4.68;3.88;;;;;;;16.06;48.80;95670.97;4979891;28;20262;-78
2023/06/16 01:42:55;;;;;;;5.88;4.10;;;;;;;16.06;48.71;95678.84;4984831;28;20211;-78
2023/06/16 01:45:21;;;;;;;8.02;5.22;;;;;;;16.01;48.79;95673.34;4983652;28;20211;-78
2023/06/16 01:47:47;;;;;;;5.53;3.95;;;;;;;15.97;48.95;95673.84;4987155;28;20215;-78
2023/06/16 01:50:12;;;;;;;5.68;3.88;;;;;;;15.93;49.35;95673.41;4981447;28;20567;-78
2023/06/16 01:52:38;;;;;;;5.25;3.97;;;;;;;15.88;49.36;95673.09;5000033;28;20184;-78
2023/06/16 01:55:04;;;;;;;4.43;4.03;;;;;;;15.95;49.37;95671.41;4960941;28;20299;-79
2023/06/16 01:57:29;;;;;;;4.65;4.25;;;;;;;15.80;49.63;95670.56;4980659;28;20259;-78
2023/06/16 02:00:14;;;;;;;4.50;4.10;;;;;;;15.81;49.54;95667.78;4988515;28;20608;-79
2023/06/16 02:02:43;;;;;;;5.25;3.70;;;;;;;15.77;49.91;95673.53;5011045;28;20176;-79
2023/06/16 02:05:10;;;;;;;4.47;4.07;;;;;;;15.70;49.88;95675.22;5021545;28;20235;-79
2023/06/16 02:07:39;;;;;;;4.20;3.83;;;;;;;15.77;49.68;95671.72;4989391;28;20286;-79
2023/06/16 02:10:04;;;;;;;4.53;4.13;;;;;;;15.69;49.96;95673.59;4988529;28;20270;-78
2023/06/16 02:12:30;;;;;;;5.10;4.43;;;;;;;15.63;50.09;95669.06;4983064;28;20215;-79
2023/06/16 02:14:56;;;;;;;4.70;4.20;;;;;;;15.65;49.99;95675.78;4998394;28;20241;-79
2023/06/16 02:17:26;;;;;;;4.60;4.20;;;;;;;15.59;50.33;95679.84;4985396;28;20183;-79
2023/06/16 02:19:54;;;;;;;5.13;3.78;;;;;;;15.58;50.06;95678.22;4981907;28;20187;-78
2023/06/16 02:22:19;;;;;;;4.40;4.00;;;;;;;15.52;50.24;95672.88;4983899;28;20258;-78
2023/06/16 02:24:44;;;;;;;4.93;4.38;;;;;;;15.47;50.30;95673.41;4986686;28;21267;-78
2023/06/16 02:27:10;;;;;;;4.47;4.03;;;;;;;15.36;51.62;95683.44;4988562;28;20196;-78
2023/06/16 02:29:35;;;;;;;5.10;4.15;;;;;;;15.28;51.97;95679.09;4987856;28;20191;-78
2023/06/16 02:32:00;;;;;;;4.85;3.90;;;;;;;15.24;51.96;95673.41;5007924;28;20187;-78
2023/06/16 02:34:26;;;;;;;4.70;4.20;;;;;;;15.18;52.21;95676.69;4981389;28;20258;-78
2023/06/16 02:36:51;;;;;;;5.18;4.15;;;;;;;15.11;52.18;95680.19;4977530;28;20218;-78
2023/06/16 02:39:18;;;;;;;4.40;4.00;;;;;;;15.06;52.68;95680.69;4979603;28;20191;-78
2023/06/16 02:41:44;;;;;;;6.07;4.43;;;;;;;15.08;52.10;95683.13;4983025;28;20833;-78
2023/06/16 02:44:09;;;;;;;5.90;3.80;;;;;;;15.06;52.05;95677.28;4988593;28;20282;-78
2023/06/16 02:46:35;;;;;;;4.30;3.90;;;;;;;15.02;51.84;95679.44;4978103;28;20211;-78
2023/06/16 02:49:00;;;;;;;4.70;3.65;;;;;;;14.99;52.09;95683.19;4982588;28;20274;-78
2023/06/16 02:51:25;;;;;;;4.82;4.15;;;;;;;14.99;51.73;95677.94;4997186;28;20200;-78
2023/06/16 02:53:51;;;;;;;4.70;4.05;;;;;;;14.97;51.75;95676.50;4986876;28;20211;-78
2023/06/16 02:56:17;;;;;;;6.30;4.35;;;;;;;14.97;51.87;95674.69;5002024;28;20721;-78
2023/06/16 02:58:43;;;;;;;4.95;3.70;;;;;;;14.98;51.66;95678.13;4990607;28;20269;-78
2023/06/16 03:01:08;;;;;;;4.53;4.13;;;;;;;14.97;51.81;95676.50;4982569;28;20213;-78
2023/06/16 03:03:36;;;;;;;4.53;4.13;;;;;;;14.97;51.65;95673.88;4962671;28;20216;-78
2023/06/16 03:06:02;;;;;;;4.93;4.20;;;;;;;14.94;51.77;95680.28;4975676;28;20188;-78
2023/06/16 03:08:27;;;;;;;5.07;3.97;;;;;;;14.92;51.82;95676.19;4990498;28;20222;-78
2023/06/16 03:10:53;;;;;;;4.72;3.80;;;;;;;14.90;52.14;95678.97;4997112;28;20567;-78
2023/06/16 03:13:18;;;;;;;6.68;4.30;;;;;;;14.89;51.92;95671.31;4966739;28;20183;-78
2023/06/16 03:15:44;;;;;;;4.38;3.88;;;;;;;14.88;52.16;95665.25;4981794;28;20270;-78
2023/06/16 03:18:10;;;;;;;4.82;4.30;;;;;;;14.87;52.40;95668.88;5003814;28;20223;-78
2023/06/16 03:20:36;;;;;;;4.35;3.75;;;;;;;14.84;51.96;95666.59;4981788;28;20187;-78
2023/06/16 03:23:01;;;;;;;5.97;4.30;;;;;;;14.87;51.79;95675.91;4980978;28;20198;-78
2023/06/16 03:25:28;;;;;;;6.53;4.40;;;;;;;14.87;52.21;95676.72;4980156;28;20720;-78
2023/06/16 03:27:53;;;;;;;5.18;4.40;;;;;;;14.89;52.18;95687.00;4986611;28;20199;-78
2023/06/16 03:30:19;;;;;;;6.50;3.83;;;;;;;14.88;51.87;95683.56;4992386;28;20179;-78
2023/06/16 03:32:45;;;;;;;3.83;3.53;;;;;;;14.91;51.90;95675.38;4981494;28;20194;-78
2023/06/16 03:35:12;;;;;;;4.20;3.80;;;;;;;14.93;52.07;95678.66;4984638;28;20200;-78
2023/06/16 03:37:38;;;;;;;4.47;4.07;;;;;;;14.98;52.09;95681.53;4978486;28;20192;-78
2023/06/16 03:40:06;;;;;;;4.18;3.78;;;;;;;15.14;51.98;95683.28;4972181;28;20207;-78
2023/06/16 03:42:32;;;;;;;5.35;4.13;;;;;;;15.31;51.76;95681.38;4979637;28;20187;-78
2023/06/16 03:44:58;;;;;;;4.70;4.05;;;;;;;15.53;51.54;95680.53;4978959;28;20218;-78
2023/06/16 03:47:24;;;;;;;4.22;3.75;;;;;;;15.96;50.42;95691.38;4982789;28;20606;-78
2023/06/16 03:49:49;;;;;;;4.95;4.20;;;;;;;16.54;48.85;95689.00;4985931;28;20681;-78
2023/06/16 03:52:15;;;;;;;6.15;4.05;;;;;;;16.96;47.54;95683.09;4967199;28;20274;-78
2023/06/16 03:54:40;;;;;;;5.05;4.35;;;;;;;17.42;46.05;95688.91;4990181;28;20204;-79
2023/06/16 03:57:06;;;;;;;4.78;4.25;;;;;;;18.05;44.60;95692.53;4977811;28;20187;-78
2023/06/16 03:59:31;;;;;;;4.43;4.00;;;;;;;18.63;43.36;95694.94;4982983;28;20196;-78
2023/06/16 04:01:57;;;;;;;4.60;4.20;;;;;;;19.10;42.02;95698.63;4958666;28;20184;-76
2023/06/16 04:04:25;;;;;;;5.40;3.92;;;;;;;19.49;41.49;95695.31;4998244;28;20207;-78
2023/06/16 04:06:50;;;;;;;7.75;3.75;;;;;;;19.40;42.78;95697.31;4983013;28;20191;-78
2023/06/16 04:09:15;;;;;;;5.63;4.00;;;;;;;19.91;41.07;95696.81;4977931;28;20216;-78
2023/06/16 04:11:41;;;;;;;4.07;3.78;;;;;;;20.13;40.66;95693.97;5000047;28;20218;-79
2023/06/16 04:14:08;;;;;;;5.13;3.95;;;;;;;20.62;40.38;95702.28;4989717;28;20293;-79
2023/06/16 04:16:34;;;;;;;6.13;4.13;;;;;;;21.30;38.61;95701.09;4995765;28;20196;-79
2023/06/16 04:19:02;;;;;;;4.28;3.88;;;;;;;20.90;38.01;95701.19;4965866;28;20555;-79
2023/06/16 04:21:27;;;;;;;5.63;4.07;;;;;;;20.94;38.13;95705.06;4972694;28;20261;-79
2023/06/16 04:23:53;;;;;;;5.30;4.07;;;;;;;21.39;37.63;95699.81;4965452;28;20298;-79
2023/06/16 04:26:22;;;;;;;5.43;4.13;;;;;;;21.96;36.40;95696.19;4964265;28;20207;-79
2023/06/16 04:28:53;;;;;;;4.13;3.72;;;;;;;22.28;35.62;95714.72;4979174;28;20207;-79
2023/06/16 04:31:20;;;;;;;3.85;3.47;;;;;;;22.26;36.08;95719.38;4983058;28;20179;-79
2023/06/16 04:33:46;;;;;;;6.90;4.30;;;;;;;22.99;34.80;95714.25;4981341;28;20215;-79
2023/06/16 04:36:11;;;;;;;6.55;3.90;;;;;;;23.29;34.58;95714.28;4983251;28;20191;-76
2023/06/16 04:38:36;;;;;;;4.47;3.78;;;;;;;23.74;34.27;95711.28;4983442;28;20245;-77
2023/06/16 04:41:02;;;;;;;4.22;3.83;;;;;;;24.14;33.62;95721.31;4994432;28;20200;-79
2023/06/16 04:43:28;;;;;;;4.30;3.90;;;;;;;24.69;32.35;95721.03;4982425;28;20192;-79
2023/06/16 04:45:53;;;;;;;11.82;4.28;;;;;;;24.60;31.97;95715.25;4980563;28;20245;-79
2023/06/16 04:48:19;;;;;;;4.40;4.00;;;;;;;24.99;31.40;95721.69;4978121;28;20207;-80
2023/06/16 04:50:45;;;;;;;6.65;4.53;;;;;;;25.30;30.84;95706.41;4999899;28;20195;-77
2023/06/16 04:53:10;;;;;;;7.00;3.92;;;;;;;25.69;31.47;95705.56;4970075;28;20223;-77
2023/06/16 04:55:37;;;;;;;5.65;3.72;;;;;;;26.90;29.70;95717.66;4973637;28;20222;-77
2023/06/16 04:58:03;;;;;;;4.22;3.83;;;;;;;26.46;29.84;95712.22;4995178;28;20278;-77
2023/06/16 05:00:30;;;;;;;5.15;3.58;;;;;;;27.22;29.12;95712.50;4990500;28;20270;-77
2023/06/16 05:02:56;;;;;;;4.85;3.65;;;;;;;27.25;28.95;95717.34;4996272;28;20544;-77
2023/06/16 05:05:22;;;;;;;4.35;3.95;;;;;;;28.17;27.82;95711.09;4998100;28;20211;-77
2023/06/16 05:07:47;;;;;;;5.80;3.80;;;;;;;27.74;28.14;95720.03;4974965;28;20226;-77
2023/06/16 05:10:12;;;;;;;4.47;3.92;;;;;;;27.10;28.93;95713.41;4982731;28;20725;-77
2023/06/16 05:12:38;;;;;;;6.95;4.03;;;;;;;27.92;27.97;95709.84;4990886;28;20203;-82
2023/06/16 05:15:04;;;;;;;6.82;3.95;;;;;;;28.40;26.85;95710.81;4964108;28;20243;-81
2023/06/16 05:17:30;;;;;;;5.35;3.80;;;;;;;27.91;27.71;95708.22;4980097;28;20194;-81
2023/06/16 05:19:55;;;;;;;5.05;4.00;;;;;;;28.05;27.49;95707.81;4975752;28;20545;-81
2023/06/16 05:22:23;;;;;;;3.92;3.58;;;;;;;27.93;27.32;95714.13;4982508;28;20179;-81
2023/06/16 05:24:54;;;;;;;6.30;3.97;;;;;;;28.59;26.68;95713.06;5002946;28;20211;-82
2023/06/16 05:27:22;;;;;;;4.45;4.05;;;;;;;28.59;26.18;95710.41;4978848;28;20195;-82
2023/06/16 05:29:51;;;;;;;8.48;3.90;;;;;;;28.90;26.75;95716.78;4969651;28;20291;-81
2023/06/16 05:32:19;;;;;;;6.13;4.03;;;;;;;28.94;25.57;95710.66;4988102;28;20222;-80
2023/06/16 05:34:54;;;;;;;4.38;3.70;;;;;;;29.47;25.16;95711.41;4998783;28;20207;-81
2023/06/16 05:37:20;;;;;;;4.68;4.10;;;;;;;29.29;24.68;95715.34;4984228;28;20187;-81
2023/06/16 05:39:46;;;;;;;7.18;4.25;;;;;;;29.59;24.11;95716.56;4968378;28;20188;-81
2023/06/16 05:42:13;;;;;;;6.25;4.00;;;;;;;29.28;24.25;95711.06;4987081;28;20187;-81
2023/06/16 05:44:40;;;;;;;7.30;4.63;;;;;;;29.25;23.60;95710.81;4976634;28;20204;-82
2023/06/16 05:47:06;;;;;;;6.55;4.25;;;;;;;29.41;23.93;95711.66;4982712;28;20190;-82
2023/06/16 05:49:31;;;;;;;6.20;4.10;;;;;;;29.24;23.09;95710.00;4985392;28;20219;-84
2023/06/16 05:51:57;;;;;;;4.28;3.88;;;;;;;29.26;22.79;95709.75;4997578;28;20192;-82
2023/06/16 05:54:22;;;;;;;7.38;4.97;;;;;;;29.52;22.24;95719.50;4986064;28;20211;-82
2023/06/16 05:56:48;;;;;;;6.28;3.90;;;;;;;29.36;22.28;95720.47;4981601;28;20195;-82
2023/06/16 05:59:13;;;;;;;4.68;4.28;;;;;;;29.63;21.92;95720.31;4987933;28;20183;-82
2023/06/16 06:01:39;;;;;;;5.55;4.00;;;;;;;29.80;21.53;95720.09;4999866;28;20240;-82
2023/06/16 06:04:04;;;;;;;7.28;4.13;;;;;;;29.37;23.14;95727.44;4961072;28;20795;-82
2023/06/16 06:06:29;;;;;;;8.88;4.40;;;;;;;29.84;22.53;95732.69;4986464;28;20219;-82
2023/06/16 06:08:55;;;;;;;5.03;3.88;;;;;;;29.94;22.31;95731.88;4970666;28;20211;-82
2023/06/16 06:11:20;;;;;;;5.20;4.50;;;;;;;30.11;22.33;95726.31;4974021;28;20183;-84
2023/06/16 06:13:48;;;;;;;6.57;3.92;;;;;;;30.86;21.06;95731.97;4974907;28;20715;-84
2023/06/16 06:16:13;;;;;;;4.68;4.05;;;;;;;29.81;22.33;95735.91;4968773;28;20195;-84
2023/06/16 06:18:39;;;;;;;6.18;4.25;;;;;;;30.34;21.97;95739.22;4986469;28;20243;-85
2023/06/16 06:21:04;;;;;;;5.50;4.00;;;;;;;30.20;21.65;95742.66;4976178;28;20187;-84
2023/06/16 06:23:29;;;;;;;8.63;4.50;;;;;;;29.16;22.88;95739.13;4968244;28;20803;-84
2023/06/16 06:25:55;;;;;;;5.47;4.05;;;;;;;30.62;22.00;95742.41;4988599;28;20195;-85
2023/06/16 06:28:23;;;;;;;6.72;4.10;;;;;;;30.41;21.97;95737.06;4983160;28;20290;-84
2023/06/16 06:30:48;;;;;;;7.15;4.47;;;;;;;30.65;22.21;95749.94;4973815;28;20187;-85
2023/06/16 06:33:14;;;;;;;5.32;4.07;;;;;;;30.09;22.09;95755.25;4969846;28;20250;-83
2023/06/16 06:35:39;;;;;;;7.43;3.90;;;;;;;30.76;21.52;95759.59;4983790;28;20212;-89
2023/06/16 06:38:05;;;;;;;8.10;4.28;;;;;;;30.59;21.25;95757.16;4995358;28;20192;-83
2023/06/16 06:40:31;;;;;;;6.25;4.35;;;;;;;30.86;20.82;95762.25;4981502;28;20334;-82
2023/06/16 06:42:57;;;;;;;5.40;3.85;;;;;;;30.40;21.28;95770.28;4982031;28;20191;-82
2023/06/16 06:45:22;;;;;;;5.40;4.03;;;;;;;30.42;21.18;95770.03;4970446;28;20204;-83
2023/06/16 06:47:47;;;;;;;4.10;3.67;;;;;;;29.94;22.26;95768.56;4979426;28;20207;-82
2023/06/16 06:50:13;;;;;;;5.15;4.28;;;;;;;29.80;22.54;95769.09;4985196;28;20187;-81
2023/06/16 06:52:38;;;;;;;6.80;4.13;;;;;;;30.48;22.12;95773.50;4970469;28;20188;-83
2023/06/16 06:55:04;;;;;;;5.88;4.18;;;;;;;30.01;20.84;95775.28;4980156;28;20205;-83
2023/06/16 06:57:29;;;;;;;7.45;3.85;;;;;;;29.96;21.38;95782.53;4987685;28;20198;-77
2023/06/16 06:59:55;;;;;;;4.88;4.10;;;;;;;29.76;21.17;95773.34;4994722;28;20199;-81
2023/06/16 07:02:21;;;;;;;4.30;3.78;;;;;;;29.74;22.10;95780.03;4995604;28;20210;-80
2023/06/16 07:04:46;;;;;;;6.05;4.43;;;;;;;29.92;20.60;95782.22;4984096;28;20215;-80
2023/06/16 07:07:13;;;;;;;4.85;4.05;;;;;;;30.12;21.16;95786.84;4984419;28;20184;-79
2023/06/16 07:09:38;;;;;;;7.45;4.40;;;;;;;30.56;20.86;95787.16;4985170;28;20211;-80
2023/06/16 07:12:04;;;;;;;4.80;4.28;;;;;;;30.64;21.00;95788.50;4986569;28;20535;-79
2023/06/16 07:14:29;;;;;;;4.95;4.05;;;;;;;30.29;21.19;95795.44;4962233;28;20254;-79
2023/06/16 07:16:55;;;;;;;4.10;3.70;;;;;;;30.89;20.11;95798.44;4981933;28;20211;-80
2023/06/16 07:19:23;;;;;;;5.70;3.70;;;;;;;32.01;19.17;95798.16;4985651;28;20246;-78
2023/06/16 07:21:48;;;;;;;6.18;3.92;;;;;;;31.46;19.77;95803.47;4990608;28;20216;-79
2023/06/16 07:24:14;;;;;;;4.43;4.00;;;;;;;30.72;20.36;95799.53;4987853;28;20234;-78
2023/06/16 07:26:39;;;;;;;5.95;3.50;;;;;;;30.59;19.18;95805.41;5000308;28;20188;-80
2023/06/16 07:29:05;;;;;;;4.80;3.65;;;;;;;30.74;19.54;95804.59;5004249;28;20208;-80
2023/06/16 07:31:30;;;;;;;5.70;3.90;;;;;;;30.25;20.78;95801.63;4998441;28;20187;-80
2023/06/16 07:33:56;;;;;;;4.20;3.63;;;;;;;30.13;20.89;95808.03;4992600;28;20257;-79
2023/06/16 07:36:21;;;;;;;5.85;4.28;;;;;;;30.30;20.46;95804.28;4982385;28;20288;-80
2023/06/16 07:38:46;;;;;;;5.82;4.30;;;;;;;30.33;20.64;95809.94;5000685;28;20561;-79
2023/06/16 07:41:12;;;;;;;3.70;3.40;;;;;;;30.34;19.53;95800.03;4999534;28;20624;-79
2023/06/16 07:43:37;;;;;;;5.95;4.18;;;;;;;29.96;20.76;95803.94;4982552;28;20406;-78
2023/06/16 07:46:02;;;;;;;4.40;3.92;;;;;;;29.56;21.06;95800.84;4966911;28;20191;-81
2023/06/16 07:48:28;;;;;;;6.22;3.70;;;;;;;30.01;19.55;95802.06;4983109;28;20222;-80
2023/06/16 07:50:53;;;;;;;3.88;3.38;;;;;;;30.54;18.94;95808.06;4968420;28;20191;-77
2023/06/16 07:53:20;;;;;;;4.10;3.35;;;;;;;30.30;19.44;95806.97;4995535;28;20184;-78
2023/06/16 07:55:45;;;;;;;6.10;4.10;;;;;;;30.31;18.97;95803.25;4967726;28;20203;-77
2023/06/16 07:58:10;;;;;;;5.40;4.00;;;;;;;29.82;19.73;95798.25;4983213;28;20205;-81
2023/06/16 08:00:36;;;;;;;8.48;4.13;;;;;;;30.05;20.17;95797.81;4986994;28;20676;-78
2023/06/16 08:03:01;;;;;;;4.55;4.15;;;;;;;29.58;20.32;95809.41;4995816;28;20191;-78
2023/06/16 08:05:27;;;;;;;6.80;3.58;;;;;;;29.76;19.96;95800.09;4962667;28;20223;-81
2023/06/16 08:07:52;;;;;;;6.25;3.53;;;;;;;30.19;20.20;95808.81;5002092;28;20215;-81
2023/06/16 08:10:20;;;;;;;7.40;4.00;;;;;;;29.18;18.54;95801.97;4986102;28;20597;-80
2023/06/16 08:12:46;;;;;;;5.43;3.67;;;;;;;29.41;18.84;95800.72;4999209;28;20245;-79
2023/06/16 08:15:11;;;;;;;6.85;3.53;;;;;;;29.30;19.42;95796.41;4988950;28;20203;-80
2023/06/16 08:17:37;;;;;;;6.57;4.10;;;;;;;28.89;19.73;95801.50;4982213;28;20190;-80
2023/06/16 08:20:06;;;;;;;3.97;3.55;;;;;;;27.18;21.46;95802.81;4956365;28;20183;-80
2023/06/16 08:22:31;;;;;;;9.15;3.70;;;;;;;27.04;21.95;95794.38;4982151;28;20562;-79
2023/06/16 08:24:57;;;;;;;11.32;4.00;;;;;;;27.68;21.20;95798.44;4994984;28;20216;-81
2023/06/16 08:27:22;;;;;;;8.57;3.97;;;;;;;27.14;21.36;95801.72;4995375;28;20183;-80
2023/06/16 08:29:48;;;;;;;5.32;3.30;;;;;;;27.29;20.69;95803.75;5000352;28;20202;-80
2023/06/16 08:32:13;;;;;;;5.88;3.70;;;;;;;27.09;22.09;95793.63;4979310;28;20268;-80
2023/06/16 08:34:39;;;;;;;5.63;3.47;;;;;;;27.31;21.81;95805.16;4978516;28;20306;-80
2023/06/16 08:37:05;;;;;;;6.28;4.03;;;;;;;26.86;20.68;95796.44;4985811;28;20191;-82
2023/06/16 08:39:30;;;;;;;5.60;3.90;;;;;;;27.19;21.46;95803.63;4967788;28;20188;-82
2023/06/16 08:41:56;;;;;;;7.18;3.83;;;;;;;26.46;21.98;95794.75;4986565;28;20269;-82
2023/06/16 08:44:21;;;;;;;5.40;4.35;;;;;;;26.47;23.32;95796.38;4961250;28;20213;-83
2023/06/16 08:46:48;;;;;;;7.75;4.18;;;;;;;27.07;23.89;95795.75;4997947;28;20267;-83
2023/06/16 08:49:15;;;;;;;4.30;3.80;;;;;;;26.71;22.89;95797.03;4963623;28;20266;-83
2023/06/16 08:51:47;;;;;;;12.57;3.97;;;;;;;26.65;23.80;95793.47;4961953;28;20180;-81
2023/06/16 08:54:13;;;;;;;7.15;3.97;;;;;;;26.79;23.11;95793.97;4982515;28;20297;-82
2023/06/16 08:56:39;;;;;;;4.18;3.75;;;;;;;26.32;24.94;95798.75;4992239;28;20271;-82
2023/06/16 08:59:05;;;;;;;5.05;4.20;;;;;;;25.80;26.00;95796.22;4981848;28;20718;-83
2023/06/16 09:01:33;;;;;;;7.35;4.50;;;;;;;25.72;24.63;95788.63;4979577;28;20195;-82
2023/06/16 09:03:59;;;;;;;4.95;4.25;;;;;;;26.09;24.73;95789.03;4977579;28;20208;-82
2023/06/16 09:06:25;;;;;;;4.63;3.85;;;;;;;25.99;24.29;95784.34;4981888;28;20194;-80
2023/06/16 09:08:50;;;;;;;6.32;3.60;;;;;;;25.96;24.24;95790.13;4971257;28;20204;-79
2023/06/16 09:11:26;;;;;;;7.05;3.70;;;;;;;25.88;24.18;95787.84;4979325;28;20183;-81
2023/06/16 09:13:55;;;;;;;4.55;3.90;;;;;;;26.48;24.32;95785.47;4964204;28;20849;-80
2023/06/16 09:16:21;;;;;;;6.53;3.90;;;;;;;26.17;24.76;95778.81;4979466;28;20196;-80
2023/06/16 09:18:47;;;;;;;5.65;3.90;;;;;;;26.49;24.09;95783.63;4999205;28;20199;-79
2023/06/16 09:21:18;;;;;;;6.75;3.90;;;;;;;26.35;23.52;95776.97;4979031;28;20188;-77
2023/06/16 09:23:43;;;;;;;8.60;4.10;;;;;;;26.14;24.16;95781.94;4985194;28;20222;-80
2023/06/16 09:26:11;;;;;;;6.15;3.90;;;;;;;26.91;23.07;95781.34;4987438;28;20242;-78
2023/06/16 09:28:37;;;;;;;6.30;4.13;;;;;;;25.90;24.01;95777.78;4974270;28;20215;-81
2023/06/16 09:31:07;;;;;;;5.97;4.00;;;;;;;25.75;24.44;95785.47;4982496;28;20250;-80
2023/06/16 09:33:33;;;;;;;5.43;3.67;;;;;;;25.61;24.58;95777.72;4989639;28;20191;-80
2023/06/16 09:35:59;;;;;;;6.03;4.32;;;;;;;25.89;24.63;95773.53;4962107;28;20191;-80
2023/06/16 09:38:25;;;;;;;7.53;4.18;;;;;;;26.11;24.65;95770.97;5001675;28;20206;-79
2023/06/16 09:40:50;;;;;;;9.30;4.18;;;;;;;26.04;24.28;95772.97;4988006;28;20255;-79
2023/06/16 09:43:16;;;;;;;7.82;4.05;;;;;;;25.82;24.59;95776.31;4979388;28;20183;-79
2023/06/16 09:45:44;;;;;;;6.57;3.88;;;;;;;25.94;23.74;95774.41;4965085;28;20184;-78
2023/06/16 09:48:10;;;;;;;4.90;3.97;;;;;;;25.85;24.61;95773.16;4989548;28;20258;-79
2023/06/16 09:50:37;;;;;;;4.68;3.70;;;;;;;26.00;24.73;95774.50;4965683;28;20610;-78
2023/06/16 09:53:08;;;;;;;4.03;3.63;;;;;;;26.34;24.50;95772.72;4984091;28;20233;-78
2023/06/16 09:55:37;;;;;;;6.93;4.20;;;;;;;26.54;24.11;95776.53;4967812;28;20196;-78
2023/06/16 09:58:02;;;;;;;8.68;4.10;;;;;;;26.29;25.43;95767.28;4981855;28;20525;-78
2023/06/16 10:00:30;;;;;;;5.95;3.58;;;;;;;26.16;24.76;95769.22;4976847;28;20191;-79
2023/06/16 10:02:57;;;;;;;5.60;4.40;;;;;;;26.41;23.85;95773.38;4981140;28;20187;-80
2023/06/16 10:05:24;;;;;;;5.97;4.40;;;;;;;26.17;23.08;95780.69;4980627;28;20203;-79
2023/06/16 10:07:52;;;;;;;5.63;3.83;;;;;;;26.02;23.11;95769.75;4990179;28;20215;-76
2023/06/16 10:10:21;;;;;;;8.05;4.28;;;;;;;25.40;25.21;95767.75;4972393;28;20552;-79
2023/06/16 10:12:49;;;;;;;5.75;4.15;;;;;;;25.29;24.28;95763.28;4979626;28;20184;-79
2023/06/16 10:15:18;;;;;;;7.72;4.45;;;;;;;25.11;23.95;95767.69;4993977;28;20207;-78
2023/06/16 10:17:44;;;;;;;5.90;4.05;;;;;;;25.26;24.65;95763.72;4985934;28;20191;-79
2023/06/16 10:20:10;;;;;;;9.63;4.07;;;;;;;25.66;25.46;95759.22;4991879;28;20242;-79
2023/06/16 10:22:36;;;;;;;7.35;4.18;;;;;;;26.15;24.06;95772.94;4978633;28;20200;-78
2023/06/16 10:25:02;;;;;;;8.38;3.95;;;;;;;25.77;24.60;95768.22;4982815;28;20230;-79
2023/06/16 10:27:27;;;;;;;8.23;4.45;;;;;;;26.28;24.83;95769.16;4962552;28;20180;-79
2023/06/16 10:29:55;;;;;;;8.07;4.47;;;;;;;26.34;23.66;95770.84;4987885;28;20192;-80
2023/06/16 10:32:21;;;;;;;7.72;4.10;;;;;;;26.72;23.99;95770.16;4979264;28;20183;-79
2023/06/16 10:34:49;;;;;;;8.30;4.25;;;;;;;26.10;24.47;95772.03;4983853;28;20290;-79
2023/06/16 10:37:15;;;;;;;7.78;4.18;;;;;;;24.64;25.47;95771.34;4984395;28;20263;-78
2023/06/16 10:39:45;;;;;;;7.80;4.45;;;;;;;25.16;25.01;95758.19;4976572;28;20211;-77
2023/06/16 10:42:15;;;;;;;6.28;4.15;;;;;;;25.37;24.42;95762.91;4970982;28;20675;-79
2023/06/16 10:44:40;;;;;;;4.97;4.10;;;;;;;25.54;24.01;95770.97;4984479;28;20218;-78
2023/06/16 10:47:09;;;;;;;11.10;4.20;;;;;;;25.92;23.49;95763.19;4996582;28;20192;-80
2023/06/16 10:49:54;;;;;;;5.53;4.00;;;;;;;26.52;22.77;95767.19;4993264;28;20805;-79
2023/06/16 10:52:29;;;;;;;5.97;4.03;;;;;;;26.05;24.15;95758.63;4964058;28;20340;-80
2023/06/16 10:54:56;;;;;;;5.93;3.95;;;;;;;26.47;24.14;95757.25;5007439;28;20842;-79
2023/06/16 10:57:25;;;;;;;7.65;4.50;;;;;;;26.91;23.18;95757.38;4988103;28;20266;-80
2023/06/16 10:59:56;;;;;;;8.15;4.60;;;;;;;27.00;22.29;95774.56;5001636;28;20188;-80
2023/06/16 11:02:48;;;;;;;5.18;4.43;;;;;;;26.69;22.31;95777.84;5002996;28;20215;-84
2023/06/16 11:05:14;;;;;;;5.35;4.53;;;;;;;26.49;22.58;95773.78;5001216;28;20226;-83
2023/06/16 11:07:46;;;;;;;5.57;3.90;;;;;;;25.55;23.94;95767.25;4967132;28;20183;-81
2023/06/16 11:10:17;;;;;;;7.63;4.38;;;;;;;25.69;24.37;95769.38;4976299;28;20599;-81
2023/06/16 11:12:44;;;;;;;12.68;5.25;;;;;;;25.45;25.21;95764.41;4967956;28;20184;-82
2023/06/16 11:15:10;;;;;;;25.33;5.55;;;;;;;25.95;24.48;95761.91;4968734;28;20211;-82
2023/06/16 11:17:35;;;;;;;6.65;4.60;;;;;;;26.31;24.24;95768.66;4980432;28;20192;-81
2023/06/16 11:20:06;;;;;;;13.55;4.50;;;;;;;26.18;23.58;95768.97;4977593;28;20179;-82
2023/06/16 11:22:36;;;;;;;6.78;4.38;;;;;;;26.05;23.96;95764.75;4987943;28;20190;-82
2023/06/16 11:25:03;;;;;;;8.57;4.65;;;;;;;26.40;23.16;95769.91;4984432;28;20218;-81
2023/06/16 11:27:30;;;;;;;6.45;4.18;;;;;;;26.19;23.71;95763.41;4988176;28;20600;-82
2023/06/16 11:29:56;;;;;;;7.60;4.43;;;;;;;26.42;23.46;95767.03;4985090;28;20563;-78
2023/06/16 11:32:23;;;;;;;7.78;4.78;;;;;;;26.45;22.70;95755.88;4985262;28;20184;-78